Time;durP1;ratioP1;P1;durP2;ratioP2;P2;SDS_P1;SDS_P2;PMS_P1;PMS_P2;Temp;Humidity;BMP_temperature;BMP_pressure;BME280_temperature;BME280_humidity;BME280_pressure;Samples;Min_cycle;Max_cycle;Signal;HPM_P1;HPM_P2
2023/03/19 00:01:39;;;;;;;;;1.00;1.00;;;;;;;;5085046;27;62947;-83
2023/03/19 00:04:05;;;;;;;;;0.00;0.00;;;;;;;;5066272;28;61912;-83
2023/03/19 00:06:30;;;;;;;;;0.75;0.25;;;;;;;;5085725;27;61786;-83
2023/03/19 00:08:55;;;;;;;;;1.00;1.00;;;;;;;;5067104;28;61820;-83
2023/03/19 00:11:21;;;;;;;;;1.50;1.50;;;;;;;;5084946;28;61707;-84
2023/03/19 00:13:46;;;;;;;;;3.25;1.00;;;;;;;;5085321;27;61817;-83
2023/03/19 00:16:11;;;;;;;;;1.25;0.00;;;;;;;;5085126;27;61946;-83
2023/03/19 00:18:37;;;;;;;;;0.75;0.75;;;;;;;;5084674;27;61887;-83
2023/03/19 00:21:02;;;;;;;;;1.00;1.00;;;;;;;;5084333;27;63243;-82
2023/03/19 00:23:27;;;;;;;;;1.00;1.00;;;;;;;;5066928;28;61752;-83
2023/03/19 00:25:53;;;;;;;;;1.00;1.00;;;;;;;;5066862;28;61942;-83
2023/03/19 00:28:18;;;;;;;;;0.75;0.75;;;;;;;;5067002;28;61902;-83
2023/03/19 00:30:44;;;;;;;;;2.00;1.00;;;;;;;;5065996;28;63759;-83
2023/03/19 00:33:09;;;;;;;;;2.00;1.00;;;;;;;;5084518;27;61842;-83
2023/03/19 00:35:35;;;;;;;;;2.00;1.00;;;;;;;;5062740;28;62065;-84
2023/03/19 00:38:00;;;;;;;;;0.50;0.50;;;;;;;;5065058;28;61891;-83
2023/03/19 00:40:26;;;;;;;;;2.00;1.00;;;;;;;;5063923;28;63737;-83
2023/03/19 00:42:51;;;;;;;;;1.00;1.00;;;;;;;;5064492;28;62046;-83
2023/03/19 00:45:17;;;;;;;;;1.25;1.25;;;;;;;;5062718;28;61934;-83
2023/03/19 00:47:42;;;;;;;;;5.50;1.00;;;;;;;;5063174;28;62399;-83
2023/03/19 00:50:08;;;;;;;;;1.75;1.75;;;;;;;;5058522;28;63491;-83
2023/03/19 00:52:33;;;;;;;;;1.00;1.00;;;;;;;;5042725;28;61939;-84
2023/03/19 00:54:58;;;;;;;;;2.25;1.00;;;;;;;;5042626;28;62049;-83
2023/03/19 00:57:24;;;;;;;;;0.25;0.25;;;;;;;;5044238;28;61882;-83
2023/03/19 00:59:49;;;;;;;;;2.00;1.00;;;;;;;;5055271;28;63637;-83
2023/03/19 01:02:15;;;;;;;;;1.00;1.00;;;;;;;;5062498;28;62342;-83
2023/03/19 01:04:40;;;;;;;;;1.75;1.00;;;;;;;;5062373;28;61807;-84
2023/03/19 01:07:05;;;;;;;;;2.00;2.00;;;;;;;;5064664;28;61768;-84
2023/03/19 01:09:31;;;;;;;;;0.50;0.50;;;;;;;;5063267;28;62947;-83
2023/03/19 01:11:57;;;;;;;;;1.50;1.50;;;;;;;;5062840;28;62053;-84
2023/03/19 01:14:22;;;;;;;;;1.00;1.00;;;;;;;;5063530;28;61811;-83
2023/03/19 01:16:47;;;;;;;;;3.50;1.00;;;;;;;;5062578;28;61749;-83
2023/03/19 01:19:13;;;;;;;;;2.00;1.00;;;;;;;;5043869;28;64589;-83
2023/03/19 01:21:38;;;;;;;;;4.00;2.25;;;;;;;;5042099;28;61992;-84
2023/03/19 01:24:04;;;;;;;;;2.00;2.00;;;;;;;;5042180;28;61760;-83
2023/03/19 01:26:29;;;;;;;;;4.00;2.50;;;;;;;;5042506;28;61831;-83
2023/03/19 01:28:55;;;;;;;;;2.00;2.00;;;;;;;;5041449;28;63944;-83
2023/03/19 01:31:21;;;;;;;;;2.00;1.00;;;;;;;;5043441;28;61796;-83
2023/03/19 01:33:46;;;;;;;;;3.00;2.25;;;;;;;;5047686;28;61800;-83
2023/03/19 01:36:12;;;;;;;;;2.00;2.00;;;;;;;;5065783;27;61751;-83
2023/03/19 01:38:37;;;;;;;;;3.25;3.00;;;;;;;;5083284;27;62589;-83
2023/03/19 01:41:02;;;;;;;;;4.00;2.75;;;;;;;;5083994;27;61831;-83
2023/03/19 01:43:29;;;;;;;;;2.25;2.25;;;;;;;;5065589;27;62136;-82
2023/03/19 01:45:58;;;;;;;;;3.50;1.50;;;;;;;;5065406;28;61936;-83
2023/03/19 01:48:26;;;;;;;;;3.00;2.00;;;;;;;;5064731;28;63883;-83
2023/03/19 01:50:54;;;;;;;;;2.75;2.00;;;;;;;;5065164;28;61826;-83
2023/03/19 01:53:20;;;;;;;;;5.75;2.00;;;;;;;;5084014;28;62153;-83
2023/03/19 01:55:46;;;;;;;;;1.00;1.00;;;;;;;;5065512;27;61937;-83
2023/03/19 01:58:11;;;;;;;;;2.00;2.00;;;;;;;;5064499;28;63869;-83
2023/03/19 02:00:38;;;;;;;;;2.00;2.00;;;;;;;;5065276;28;61830;-83
2023/03/19 02:03:04;;;;;;;;;4.00;2.75;;;;;;;;5065281;28;62035;-83
2023/03/19 02:05:29;;;;;;;;;3.00;3.00;;;;;;;;5082248;27;62301;-83
2023/03/19 02:08:00;;;;;;;;;2.25;2.25;;;;;;;;5064756;28;65098;-83
2023/03/19 02:10:26;;;;;;;;;3.00;2.00;;;;;;;;5065134;28;61957;-83
2023/03/19 02:12:51;;;;;;;;;3.00;3.00;;;;;;;;5083517;28;61863;-83
2023/03/19 02:15:16;;;;;;;;;2.50;2.00;;;;;;;;5065305;28;62107;-83
2023/03/19 02:17:42;;;;;;;;;2.25;2.25;;;;;;;;5064388;28;63946;-83
2023/03/19 02:20:13;;;;;;;;;2.25;2.00;;;;;;;;5082819;28;62480;-83
2023/03/19 02:22:52;;;;;;;;;2.25;2.25;;;;;;;;5083470;27;61895;-83
2023/03/19 02:25:23;;;;;;;;;4.00;2.75;;;;;;;;5064987;28;62223;-83
2023/03/19 02:27:48;;;;;;;;;2.25;2.25;;;;;;;;5082525;28;61894;-83
2023/03/19 02:30:20;;;;;;;;;3.25;2.75;;;;;;;;5082702;27;62640;-83
2023/03/19 02:32:45;;;;;;;;;3.50;2.50;;;;;;;;5064962;28;62051;-83
2023/03/19 02:35:10;;;;;;;;;5.00;5.00;;;;;;;;5064470;28;62092;-83
2023/03/19 02:37:36;;;;;;;;;2.25;2.25;;;;;;;;5064016;27;64997;-83
2023/03/19 02:40:04;;;;;;;;;4.75;3.00;;;;;;;;5064782;28;61988;-83
2023/03/19 02:42:29;;;;;;;;;5.25;2.00;;;;;;;;5082894;28;61997;-83
2023/03/19 02:44:55;;;;;;;;;5.00;3.25;;;;;;;;5064595;28;61782;-83
2023/03/19 02:47:20;;;;;;;;;3.00;3.00;;;;;;;;5063910;28;64727;-83
2023/03/19 02:49:46;;;;;;;;;2.25;2.00;;;;;;;;5064225;27;62143;-83
2023/03/19 02:52:12;;;;;;;;;2.50;2.00;;;;;;;;5082802;28;62045;-84
2023/03/19 02:54:37;;;;;;;;;5.00;2.00;;;;;;;;5082781;27;62158;-83
2023/03/19 02:57:02;;;;;;;;;2.75;2.75;;;;;;;;5063671;28;65183;-83
2023/03/19 02:59:28;;;;;;;;;4.25;3.00;;;;;;;;5082393;28;61882;-84
2023/03/19 03:01:53;;;;;;;;;2.25;2.00;;;;;;;;5082956;28;61931;-83
2023/03/19 03:04:19;;;;;;;;;3.50;3.00;;;;;;;;5082197;28;61785;-83
2023/03/19 03:06:45;;;;;;;;;2.75;2.00;;;;;;;;5081892;27;62663;-83
2023/03/19 03:09:11;;;;;;;;;4.75;3.00;;;;;;;;5082644;28;61849;-83
2023/03/19 03:11:37;;;;;;;;;3.00;2.00;;;;;;;;5082352;27;61858;-83
2023/03/19 03:14:02;;;;;;;;;3.00;2.00;;;;;;;;5064454;28;61823;-83
2023/03/19 03:16:27;;;;;;;;;2.50;2.25;;;;;;;;5064179;28;63354;-83
2023/03/19 03:18:53;;;;;;;;;2.00;2.00;;;;;;;;5066951;27;62009;-83
2023/03/19 03:21:20;;;;;;;;;0.00;0.00;;;;;;;;5086302;27;61932;-83
2023/03/19 03:23:45;;;;;;;;;4.50;3.50;;;;;;;;5086220;28;61806;-83
2023/03/19 03:26:11;;;;;;;;;2.00;2.00;;;;;;;;5066989;28;63970;-83
2023/03/19 03:28:36;;;;;;;;;6.50;3.50;;;;;;;;5067726;28;62081;-83
2023/03/19 03:31:02;;;;;;;;;6.50;2.25;;;;;;;;5067778;27;61915;-83
2023/03/19 03:33:28;;;;;;;;;5.50;4.00;;;;;;;;5085817;27;61818;-83
2023/03/19 03:35:53;;;;;;;;;6.00;4.75;;;;;;;;5084999;28;63309;-83
2023/03/19 03:38:18;;;;;;;;;3.75;3.75;;;;;;;;5067656;28;61926;-83
2023/03/19 03:40:43;;;;;;;;;9.25;6.25;;;;;;;;5085412;27;61767;-83
2023/03/19 03:43:10;;;;;;;;;6.50;3.50;;;;;;;;5067806;28;61874;-83
2023/03/19 03:45:36;;;;;;;;;6.00;3.00;;;;;;;;5066677;28;64870;-83
2023/03/19 03:48:01;;;;;;;;;4.50;2.75;;;;;;;;5067127;28;61822;-82
2023/03/19 03:50:26;;;;;;;;;5.50;4.00;;;;;;;;5067194;28;61929;-83
2023/03/19 03:52:51;;;;;;;;;3.00;3.00;;;;;;;;5067219;28;61767;-83
2023/03/19 03:55:17;;;;;;;;;3.75;3.75;;;;;;;;5066362;28;63697;-83
2023/03/19 03:57:42;;;;;;;;;2.75;2.75;;;;;;;;5067266;28;61858;-83
2023/03/19 04:00:08;;;;;;;;;2.25;2.25;;;;;;;;5085059;27;62799;-83
2023/03/19 04:02:33;;;;;;;;;1.25;0.00;;;;;;;;5067446;28;62187;-83
2023/03/19 04:04:58;;;;;;;;;3.25;3.00;;;;;;;;5065759;28;64542;-84
2023/03/19 04:07:23;;;;;;;;;5.25;4.75;;;;;;;;5067039;28;61837;-83
2023/03/19 04:09:49;;;;;;;;;4.00;3.00;;;;;;;;5066867;28;61966;-83
2023/03/19 04:12:15;;;;;;;;;3.50;2.75;;;;;;;;5067031;27;61829;-84
2023/03/19 04:14:40;;;;;;;;;3.25;3.00;;;;;;;;5084659;28;61987;-83
2023/03/19 04:17:05;;;;;;;;;3.25;3.25;;;;;;;;5066783;28;61958;-83
2023/03/19 04:19:31;;;;;;;;;4.00;4.00;;;;;;;;5084655;27;61830;-82
2023/03/19 04:21:57;;;;;;;;;5.00;5.00;;;;;;;;5085604;27;61937;-83
2023/03/19 04:24:22;;;;;;;;;5.50;5.25;;;;;;;;5065788;28;63650;-83
2023/03/19 04:26:48;;;;;;;;;4.00;3.50;;;;;;;;5084868;27;61759;-83
2023/03/19 04:29:14;;;;;;;;;3.75;3.75;;;;;;;;5066346;28;61829;-82
2023/03/19 04:31:39;;;;;;;;;10.50;5.50;;;;;;;;5084986;28;62041;-83
2023/03/19 04:34:05;;;;;;;;;7.00;5.00;;;;;;;;5065745;28;63609;-83
2023/03/19 04:36:30;;;;;;;;;9.25;4.25;;;;;;;;5066529;28;61985;-83
2023/03/19 04:38:56;;;;;;;;;6.00;5.00;;;;;;;;5084772;27;62330;-83
2023/03/19 04:41:21;;;;;;;;;5.50;4.00;;;;;;;;5085165;27;61958;-83
2023/03/19 04:43:46;;;;;;;;;7.75;4.75;;;;;;;;5066099;28;63821;-83
2023/03/19 04:46:12;;;;;;;;;4.00;4.00;;;;;;;;5084656;27;62005;-83
2023/03/19 04:48:38;;;;;;;;;4.75;4.75;;;;;;;;5066257;28;62175;-83
2023/03/19 04:51:04;;;;;;;;;5.25;5.25;;;;;;;;5066664;28;61905;-83
2023/03/19 04:53:29;;;;;;;;;7.00;6.25;;;;;;;;5065384;27;63626;-83
2023/03/19 04:55:55;;;;;;;;;5.50;4.50;;;;;;;;5084645;28;61921;-83
2023/03/19 04:58:20;;;;;;;;;4.00;4.00;;;;;;;;5066629;28;61899;-84
2023/03/19 05:00:46;;;;;;;;;7.00;7.00;;;;;;;;5066210;28;61858;-83
2023/03/19 05:03:12;;;;;;;;;9.50;8.00;;;;;;;;5065960;28;63962;-84
2023/03/19 05:05:37;;;;;;;;;6.75;5.50;;;;;;;;5084013;27;61942;-83
2023/03/19 05:08:03;;;;;;;;;10.00;5.50;;;;;;;;5084083;28;61957;-83
2023/03/19 05:10:29;;;;;;;;;7.00;7.00;;;;;;;;5066581;28;62123;-83
2023/03/19 05:12:58;;;;;;;;;11.50;7.00;;;;;;;;5083727;28;61931;-83
2023/03/19 05:15:23;;;;;;;;;8.75;5.00;;;;;;;;5066093;28;62033;-83
2023/03/19 05:17:49;;;;;;;;;8.00;8.00;;;;;;;;5065813;28;62004;-83
2023/03/19 05:20:15;;;;;;;;;7.25;7.25;;;;;;;;5065862;28;61870;-82
2023/03/19 05:22:41;;;;;;;;;7.75;7.00;;;;;;;;5065159;28;64003;-83
2023/03/19 05:25:06;;;;;;;;;6.75;6.75;;;;;;;;5065374;28;61929;-83
2023/03/19 05:27:31;;;;;;;;;8.25;7.00;;;;;;;;5065845;28;61750;-83
2023/03/19 05:29:57;;;;;;;;;9.00;9.00;;;;;;;;5065881;28;62136;-83
2023/03/19 05:32:26;;;;;;;;;10.50;8.50;;;;;;;;5065077;27;63444;-83
2023/03/19 05:34:51;;;;;;;;;8.25;7.00;;;;;;;;5061266;28;62063;-83
2023/03/19 05:37:17;;;;;;;;;11.00;7.75;;;;;;;;5062222;28;62025;-83
2023/03/19 05:39:42;;;;;;;;;8.75;8.75;;;;;;;;5061390;28;61782;-83
2023/03/19 05:42:07;;;;;;;;;10.00;6.50;;;;;;;;5061405;28;64615;-83
2023/03/19 05:44:33;;;;;;;;;11.00;8.25;;;;;;;;5062011;28;62004;-83
2023/03/19 05:46:58;;;;;;;;;9.75;8.50;;;;;;;;5062105;28;61967;-83
2023/03/19 05:49:23;;;;;;;;;11.00;9.75;;;;;;;;5063363;28;61966;-83
2023/03/19 05:51:48;;;;;;;;;11.00;8.25;;;;;;;;5062671;28;61921;-83
2023/03/19 05:54:14;;;;;;;;;8.75;7.75;;;;;;;;5061669;28;61950;-83
2023/03/19 05:56:39;;;;;;;;;8.50;7.75;;;;;;;;5061916;28;62019;-83
2023/03/19 05:59:05;;;;;;;;;7.50;6.00;;;;;;;;5063037;28;61868;-83
2023/03/19 06:01:30;;;;;;;;;8.25;8.00;;;;;;;;5062673;28;63014;-83
2023/03/19 06:03:56;;;;;;;;;8.00;5.75;;;;;;;;5061546;28;62111;-83
2023/03/19 06:06:21;;;;;;;;;8.75;7.75;;;;;;;;5062677;28;62107;-83
2023/03/19 06:08:47;;;;;;;;;4.75;4.25;;;;;;;;5061894;28;62240;-83
2023/03/19 06:11:12;;;;;;;;;8.50;7.25;;;;;;;;5062453;28;61976;-82
2023/03/19 06:13:38;;;;;;;;;10.75;9.50;;;;;;;;5063158;28;61827;-83
2023/03/19 06:16:03;;;;;;;;;8.75;8.75;;;;;;;;5061547;28;61877;-82
2023/03/19 06:18:28;;;;;;;;;8.25;7.75;;;;;;;;5062740;28;61879;-83
2023/03/19 06:20:54;;;;;;;;;13.25;7.00;;;;;;;;5061378;28;62138;-83
2023/03/19 06:23:19;;;;;;;;;10.00;6.00;;;;;;;;5062875;28;61702;-83
2023/03/19 06:25:45;;;;;;;;;10.50;9.75;;;;;;;;5062829;28;61605;-83
2023/03/19 06:28:10;;;;;;;;;8.75;8.75;;;;;;;;5063167;28;61747;-83
2023/03/19 06:30:35;;;;;;;;;10.00;8.00;;;;;;;;5061708;28;62448;-83
2023/03/19 06:33:01;;;;;;;;;11.25;9.50;;;;;;;;5061347;28;62042;-83
2023/03/19 06:35:26;;;;;;;;;8.75;8.00;;;;;;;;5060387;28;61843;-83
2023/03/19 06:37:51;;;;;;;;;11.75;10.00;;;;;;;;5061649;28;62211;-83
2023/03/19 06:40:17;;;;;;;;;7.75;7.75;;;;;;;;5060764;28;65047;-83
2023/03/19 06:42:46;;;;;;;;;12.25;6.75;;;;;;;;5061276;28;62072;-82
2023/03/19 06:45:14;;;;;;;;;9.50;8.75;;;;;;;;5061357;28;61788;-83
2023/03/19 06:47:40;;;;;;;;;9.00;7.00;;;;;;;;5061221;28;61772;-83
2023/03/19 06:50:06;;;;;;;;;7.00;6.00;;;;;;;;5060009;28;63970;-83
2023/03/19 06:52:31;;;;;;;;;6.00;6.00;;;;;;;;5062394;28;61742;-83
2023/03/19 06:54:56;;;;;;;;;6.75;6.50;;;;;;;;5062305;28;62074;-83
2023/03/19 06:57:22;;;;;;;;;9.25;6.25;;;;;;;;5061254;28;62063;-83
2023/03/19 06:59:47;;;;;;;;;11.00;7.75;;;;;;;;5060039;28;63496;-83
2023/03/19 07:02:12;;;;;;;;;14.50;9.00;;;;;;;;5062292;28;62025;-83
2023/03/19 07:04:37;;;;;;;;;7.00;7.00;;;;;;;;5060755;28;62069;-84
2023/03/19 07:07:04;;;;;;;;;8.50;7.00;;;;;;;;5060981;28;61756;-83
2023/03/19 07:09:29;;;;;;;;;11.25;9.00;;;;;;;;5061377;28;62068;-83
2023/03/19 07:11:55;;;;;;;;;9.00;7.00;;;;;;;;5062110;28;61950;-83
2023/03/19 07:14:20;;;;;;;;;7.75;6.25;;;;;;;;5060952;28;61843;-83
2023/03/19 07:16:45;;;;;;;;;8.25;4.25;;;;;;;;5062322;28;62128;-83
2023/03/19 07:19:10;;;;;;;;;6.75;5.50;;;;;;;;5060590;28;62886;-83
2023/03/19 07:21:36;;;;;;;;;8.25;5.00;;;;;;;;5060736;28;61802;-83
2023/03/19 07:24:01;;;;;;;;;4.50;4.50;;;;;;;;5060437;28;62030;-83
2023/03/19 07:26:26;;;;;;;;;4.50;3.75;;;;;;;;5051774;28;61961;-83
2023/03/19 07:28:52;;;;;;;;;5.75;5.75;;;;;;;;5041162;28;62935;-81
2023/03/19 07:31:17;;;;;;;;;8.25;5.25;;;;;;;;5040409;28;62031;-82
2023/03/19 07:33:42;;;;;;;;;7.25;4.25;;;;;;;;5042472;28;61920;-82
2023/03/19 07:36:08;;;;;;;;;9.00;7.75;;;;;;;;5043113;28;61748;-83
2023/03/19 07:38:33;;;;;;;;;5.50;4.50;;;;;;;;5061347;28;61715;-82
2023/03/19 07:40:58;;;;;;;;;4.00;4.00;;;;;;;;5043789;28;61949;-83
2023/03/19 07:43:24;;;;;;;;;4.25;3.75;;;;;;;;5054319;28;61813;-82
2023/03/19 07:45:50;;;;;;;;;5.00;5.00;;;;;;;;5063721;28;62090;-82
2023/03/19 07:48:15;;;;;;;;;5.25;2.25;;;;;;;;5081307;27;63005;-82
2023/03/19 07:50:40;;;;;;;;;8.00;5.00;;;;;;;;5081738;28;61931;-83
2023/03/19 07:53:06;;;;;;;;;4.50;4.00;;;;;;;;5063759;28;62095;-82
2023/03/19 07:55:31;;;;;;;;;5.00;3.50;;;;;;;;5063605;28;62059;-83
2023/03/19 07:57:57;;;;;;;;;5.25;4.00;;;;;;;;5063114;28;63734;-82
2023/03/19 08:00:22;;;;;;;;;6.75;6.25;;;;;;;;5063225;28;61754;-82
2023/03/19 08:02:48;;;;;;;;;4.00;4.00;;;;;;;;5068984;28;62316;-82
2023/03/19 08:05:15;;;;;;;;;6.50;4.75;;;;;;;;5071334;27;62513;-81
2023/03/19 08:07:40;;;;;;;;;3.75;3.25;;;;;;;;5058702;27;63765;-80
2023/03/19 08:10:06;;;;;;;;;7.25;3.75;;;;;;;;5084569;27;61717;-81
2023/03/19 08:12:32;;;;;;;;;5.75;4.25;;;;;;;;5084792;27;61953;-83
2023/03/19 08:14:57;;;;;;;;;5.25;3.00;;;;;;;;5083948;28;62218;-83
2023/03/19 08:17:22;;;;;;;;;5.75;5.00;;;;;;;;5084173;27;63139;-83
2023/03/19 08:19:47;;;;;;;;;6.00;4.00;;;;;;;;5084978;27;61858;-83
2023/03/19 08:22:13;;;;;;;;;2.50;2.00;;;;;;;;5067128;27;61750;-83
2023/03/19 08:24:38;;;;;;;;;4.00;4.00;;;;;;;;5066954;28;62367;-84
2023/03/19 08:27:03;;;;;;;;;4.25;4.00;;;;;;;;5084534;27;63218;-84
2023/03/19 08:29:28;;;;;;;;;4.00;4.00;;;;;;;;5066342;28;61752;-84
2023/03/19 08:31:55;;;;;;;;;2.50;2.50;;;;;;;;5084795;28;61968;-83
2023/03/19 08:34:20;;;;;;;;;4.50;4.50;;;;;;;;5084928;27;61755;-83
2023/03/19 08:36:46;;;;;;;;;3.50;3.25;;;;;;;;5059227;28;63829;-79
2023/03/19 08:39:11;;;;;;;;;6.25;5.25;;;;;;;;5080690;27;61771;-84
2023/03/19 08:41:38;;;;;;;;;11.25;7.50;;;;;;;;5045955;28;61783;-84
2023/03/19 08:44:03;;;;;;;;;9.00;6.25;;;;;;;;5074730;28;61797;-82
2023/03/19 08:46:29;;;;;;;;;7.75;4.00;;;;;;;;5083380;28;61801;-81
2023/03/19 08:48:54;;;;;;;;;5.50;4.00;;;;;;;;5065548;28;62356;-83
2023/03/19 08:51:20;;;;;;;;;4.75;4.75;;;;;;;;5061704;28;61941;-83
2023/03/19 08:53:45;;;;;;;;;3.00;3.00;;;;;;;;5065781;28;61880;-81
2023/03/19 08:56:11;;;;;;;;;5.50;5.00;;;;;;;;5063148;28;64859;-80
2023/03/19 08:58:36;;;;;;;;;4.50;4.25;;;;;;;;5072881;28;61917;-81
2023/03/19 09:01:03;;;;;;;;;5.00;5.00;;;;;;;;5065581;28;62133;-81
2023/03/19 09:03:28;;;;;;;;;8.00;4.00;;;;;;;;5084345;28;62106;-82
2023/03/19 09:05:56;;;;;;;;;4.25;3.25;;;;;;;;5064745;28;63728;-81
2023/03/19 09:08:21;;;;;;;;;4.00;4.00;;;;;;;;5065782;28;61778;-83
2023/03/19 09:10:47;;;;;;;;;1.00;1.00;;;;;;;;5065564;28;61968;-80
2023/03/19 09:13:12;;;;;;;;;2.75;1.75;;;;;;;;5083619;27;61755;-83
2023/03/19 09:15:37;;;;;;;;;3.00;3.00;;;;;;;;5059240;28;65193;-82
2023/03/19 09:18:02;;;;;;;;;5.75;3.00;;;;;;;;5057426;28;61843;-81
2023/03/19 09:20:28;;;;;;;;;3.00;2.50;;;;;;;;5053156;28;61925;-83
2023/03/19 09:22:53;;;;;;;;;4.00;4.00;;;;;;;;5073111;28;61818;-83
2023/03/19 09:25:18;;;;;;;;;6.00;4.00;;;;;;;;5054519;28;63393;-83
2023/03/19 09:27:44;;;;;;;;;3.00;3.00;;;;;;;;5057518;28;62079;-82
2023/03/19 09:30:09;;;;;;;;;4.00;3.75;;;;;;;;5062053;28;61823;-82
2023/03/19 09:32:35;;;;;;;;;4.25;4.25;;;;;;;;5072799;28;61945;-82
2023/03/19 09:35:01;;;;;;;;;2.00;2.00;;;;;;;;5072772;28;62194;-81
2023/03/19 09:37:26;;;;;;;;;4.00;4.00;;;;;;;;5053484;28;62371;-81
2023/03/19 09:39:51;;;;;;;;;4.75;3.00;;;;;;;;5063453;28;61909;-82
2023/03/19 09:42:30;;;;;;;;;4.00;3.00;;;;;;;;5043773;28;62034;-81
2023/03/19 09:44:56;;;;;;;;;4.00;3.00;;;;;;;;5059920;28;63824;-83
2023/03/19 09:47:27;;;;;;;;;5.00;2.75;;;;;;;;5078977;27;61836;-82
2023/03/19 09:49:57;;;;;;;;;4.00;4.00;;;;;;;;5063799;28;62010;-82
2023/03/19 09:52:25;;;;;;;;;2.75;2.25;;;;;;;;5082707;28;62024;-82
2023/03/19 09:54:51;;;;;;;;;7.00;3.00;;;;;;;;5063294;28;64011;-82
2023/03/19 09:57:17;;;;;;;;;5.50;5.00;;;;;;;;5064028;28;61895;-82
2023/03/19 09:59:42;;;;;;;;;5.00;4.00;;;;;;;;5071440;28;62102;-81
2023/03/19 10:02:27;;;;;;;;;3.00;3.00;;;;;;;;5066702;27;62033;-81
2023/03/19 10:05:11;;;;;;;;;7.00;4.00;;;;;;;;5061758;28;63735;-81
2023/03/19 10:07:55;;;;;;;;;2.00;2.00;;;;;;;;5062454;27;62465;-81
2023/03/19 10:10:21;;;;;;;;;6.50;4.00;;;;;;;;5071783;27;61777;-81
2023/03/19 10:12:56;;;;;;;;;4.75;3.25;;;;;;;;5053069;28;62089;-83
2023/03/19 10:15:30;;;;;;;;;5.25;2.50;;;;;;;;5048216;28;64619;-82
2023/03/19 10:18:12;;;;;;;;;3.00;3.00;;;;;;;;5072258;28;61981;-83
2023/03/19 10:20:47;;;;;;;;;6.25;4.00;;;;;;;;5052135;28;61982;-83
2023/03/19 10:23:30;;;;;;;;;8.75;3.50;;;;;;;;5065207;28;61858;-83
2023/03/19 10:25:57;;;;;;;;;8.25;5.50;;;;;;;;5077715;28;61993;-84
2023/03/19 10:28:29;;;;;;;;;4.00;1.50;;;;;;;;5060536;28;61969;-81
2023/03/19 10:30:54;;;;;;;;;5.00;5.00;;;;;;;;5081985;28;61838;-79
2023/03/19 10:33:20;;;;;;;;;7.75;6.50;;;;;;;;5064079;28;62064;-81
2023/03/19 10:35:48;;;;;;;;;5.25;5.25;;;;;;;;5081797;28;61803;-83
2023/03/19 10:38:22;;;;;;;;;9.00;8.00;;;;;;;;5064518;28;61905;-83
2023/03/19 10:40:54;;;;;;;;;6.75;6.75;;;;;;;;5064839;28;61786;-82
2023/03/19 10:43:21;;;;;;;;;9.75;9.00;;;;;;;;5082165;27;61906;-82
2023/03/19 10:45:48;;;;;;;;;6.75;5.50;;;;;;;;5066408;27;63945;-83
2023/03/19 10:48:17;;;;;;;;;7.50;5.25;;;;;;;;5059363;28;62217;-83
2023/03/19 10:50:49;;;;;;;;;2.75;2.75;;;;;;;;5082979;27;61873;-83
2023/03/19 10:53:15;;;;;;;;;3.00;2.00;;;;;;;;5062035;28;62046;-85
2023/03/19 10:55:46;;;;;;;;;2.00;1.00;;;;;;;;5070539;28;63709;-83
2023/03/19 10:58:16;;;;;;;;;3.00;1.00;;;;;;;;5069142;28;62125;-83
2023/03/19 11:00:44;;;;;;;;;1.25;1.25;;;;;;;;5070922;27;62233;-84
2023/03/19 11:03:38;;;;;;;;;2.00;2.00;;;;;;;;5079566;28;61687;-88
2023/03/19 11:06:06;;;;;;;;;3.00;1.75;;;;;;;;5075514;27;61909;-85
2023/03/19 11:08:38;;;;;;;;;3.50;3.00;;;;;;;;5057341;28;61909;-84
2023/03/19 11:11:03;;;;;;;;;3.25;3.25;;;;;;;;5079208;27;62628;-84
2023/03/19 11:13:29;;;;;;;;;7.50;2.00;;;;;;;;5064741;28;61867;-85
2023/03/19 11:15:58;;;;;;;;;2.00;2.00;;;;;;;;5062034;28;64550;-87
2023/03/19 11:18:28;;;;;;;;;6.00;5.25;;;;;;;;5080347;28;62150;-86
2023/03/19 11:20:58;;;;;;;;;3.00;2.00;;;;;;;;5062788;28;62002;-85
2023/03/19 11:23:26;;;;;;;;;10.25;8.00;;;;;;;;5083644;27;61944;-87
2023/03/19 11:25:54;;;;;;;;;18.25;12.75;;;;;;;;5081176;27;61824;-85
2023/03/19 11:28:21;;;;;;;;;6.75;5.75;;;;;;;;5064922;28;61738;-85
2023/03/19 11:31:14;;;;;;;;;8.50;6.75;;;;;;;;5061939;28;61934;-84
2023/03/19 11:33:40;;;;;;;;;3.25;3.00;;;;;;;;5061715;28;61979;-84
2023/03/19 11:36:17;;;;;;;;;12.50;11.25;;;;;;;;5055959;28;63646;-84
2023/03/19 11:38:56;;;;;;;;;9.75;5.50;;;;;;;;5065427;28;62013;-84
2023/03/19 11:41:40;;;;;;;;;3.25;1.75;;;;;;;;5074788;27;61792;-84
2023/03/19 11:44:22;;;;;;;;;2.00;2.00;;;;;;;;5085593;27;61815;-84
2023/03/19 11:47:11;;;;;;;;;1.00;1.00;;;;;;;;5084729;27;61933;-84
2023/03/19 11:49:56;;;;;;;;;5.00;3.00;;;;;;;;5066686;27;61885;-84
2023/03/19 11:52:32;;;;;;;;;4.50;3.00;;;;;;;;5085476;27;61793;-85
2023/03/19 11:55:00;;;;;;;;;1.50;1.50;;;;;;;;5066792;27;61802;-85
2023/03/19 11:57:49;;;;;;;;;5.50;3.00;;;;;;;;5066169;28;64998;-86
2023/03/19 12:00:17;;;;;;;;;3.75;3.75;;;;;;;;5084859;27;61727;-85
2023/03/19 12:02:50;;;;;;;;;3.00;2.75;;;;;;;;5067245;28;62029;-86
2023/03/19 12:05:15;;;;;;;;;2.00;2.00;;;;;;;;5066888;28;61827;-87
2023/03/19 12:07:49;;;;;;;;;4.00;1.25;;;;;;;;5065993;28;64051;-86
2023/03/19 12:10:26;;;;;;;;;1.00;1.00;;;;;;;;5066583;27;62025;-85
2023/03/19 12:13:12;;;;;;;;;1.00;1.00;;;;;;;;5066732;27;61983;-84
2023/03/19 12:15:45;;;;;;;;;0.75;0.75;;;;;;;;5049118;27;62688;-83
2023/03/19 12:18:13;;;;;;;;;1.75;1.75;;;;;;;;5065446;28;64557;-84
2023/03/19 12:20:47;;;;;;;;;1.00;1.00;;;;;;;;5066216;28;62023;-84
2023/03/19 12:23:13;;;;;;;;;1.75;1.75;;;;;;;;5066429;28;62089;-84
2023/03/19 12:25:59;;;;;;;;;3.00;1.00;;;;;;;;5084962;27;61944;-83
2023/03/19 12:28:30;;;;;;;;;0.75;0.75;;;;;;;;5082903;27;64016;-85
2023/03/19 12:31:01;;;;;;;;;1.50;1.25;;;;;;;;5066114;28;61806;-84
2023/03/19 12:33:27;;;;;;;;;2.00;2.00;;;;;;;;5066343;27;61957;-85
2023/03/19 12:35:54;;;;;;;;;1.75;1.75;;;;;;;;5084470;27;61905;-84
2023/03/19 12:38:23;;;;;;;;;1.00;1.00;;;;;;;;5066847;27;63801;-85
2023/03/19 12:41:00;;;;;;;;;2.00;0.75;;;;;;;;5079069;27;61848;-84
2023/03/19 12:43:32;;;;;;;;;2.25;0.25;;;;;;;;5073048;27;61926;-85
2023/03/19 12:46:02;;;;;;;;;0.25;0.00;;;;;;;;5080433;27;61827;-81
2023/03/19 12:48:30;;;;;;;;;1.00;1.00;;;;;;;;5060669;28;63813;-81
2023/03/19 12:50:58;;;;;;;;;1.75;1.25;;;;;;;;5063564;28;61959;-81
2023/03/19 12:53:23;;;;;;;;;2.00;1.00;;;;;;;;5064107;28;61849;-81
2023/03/19 12:55:53;;;;;;;;;0.50;0.00;;;;;;;;5058961;28;61950;-83
2023/03/19 12:58:37;;;;;;;;;0.00;0.00;;;;;;;;5057100;28;64564;-82
2023/03/19 13:01:09;;;;;;;;;1.00;1.00;;;;;;;;5077382;27;61778;-83
2023/03/19 13:03:52;;;;;;;;;1.75;1.00;;;;;;;;5064377;28;61764;-81
2023/03/19 13:06:33;;;;;;;;;2.25;1.50;;;;;;;;5065652;28;62626;-81
2023/03/19 13:09:17;;;;;;;;;0.25;0.00;;;;;;;;5065540;27;63667;-80
2023/03/19 13:11:50;;;;;;;;;1.00;1.00;;;;;;;;5060646;28;61927;-79
2023/03/19 13:14:25;;;;;;;;;2.00;2.00;;;;;;;;5061710;27;62164;-81
2023/03/19 13:17:14;;;;;;;;;1.25;1.25;;;;;;;;5044527;28;61712;-79
2023/03/19 13:19:44;;;;;;;;;1.00;1.00;;;;;;;;5052235;28;63860;-81
2023/03/19 13:22:11;;;;;;;;;0.75;0.75;;;;;;;;5083146;27;61647;-80
2023/03/19 13:24:37;;;;;;;;;0.25;0.25;;;;;;;;5082311;27;61696;-81
2023/03/19 13:27:05;;;;;;;;;2.00;1.00;;;;;;;;5077325;28;62111;-81
2023/03/19 13:29:32;;;;;;;;;2.00;0.50;;;;;;;;5045288;28;64583;-81
2023/03/19 13:32:27;;;;;;;;;0.25;0.25;;;;;;;;5064725;28;61804;-81
2023/03/19 13:35:08;;;;;;;;;2.00;2.00;;;;;;;;5050401;28;62076;-80
2023/03/19 13:37:33;;;;;;;;;3.00;1.00;;;;;;;;5064556;28;61781;-80
2023/03/19 13:40:03;;;;;;;;;0.00;0.00;;;;;;;;5063321;27;64798;-82
2023/03/19 13:42:36;;;;;;;;;0.50;0.50;;;;;;;;5071657;28;62060;-81
2023/03/19 13:45:22;;;;;;;;;1.00;1.00;;;;;;;;5077263;27;61905;-80
2023/03/19 13:47:48;;;;;;;;;1.00;1.00;;;;;;;;5070702;27;62135;-81
2023/03/19 13:50:24;;;;;;;;;0.50;0.00;;;;;;;;5079189;27;62184;-80
2023/03/19 13:53:01;;;;;;;;;1.00;1.00;;;;;;;;5079975;27;61908;-81
2023/03/19 13:55:31;;;;;;;;;0.00;0.00;;;;;;;;5069251;27;62411;-80
2023/03/19 13:58:16;;;;;;;;;1.00;1.00;;;;;;;;5071276;27;62191;-81
2023/03/19 14:00:44;;;;;;;;;0.50;0.00;;;;;;;;5065845;27;63480;-81
2023/03/19 14:03:21;;;;;;;;;0.25;0.25;;;;;;;;5069732;28;61771;-81
2023/03/19 14:05:47;;;;;;;;;0.00;0.00;;;;;;;;5078744;27;61835;-81
2023/03/19 14:08:21;;;;;;;;;1.50;1.00;;;;;;;;5081174;27;62089;-81
2023/03/19 14:10:48;;;;;;;;;1.75;1.00;;;;;;;;5064585;28;64938;-81
2023/03/19 14:13:20;;;;;;;;;2.25;1.75;;;;;;;;5063929;28;62163;-81
2023/03/19 14:15:50;;;;;;;;;1.00;1.00;;;;;;;;5063770;28;61908;-81
2023/03/19 14:18:21;;;;;;;;;0.50;0.00;;;;;;;;5078877;27;61877;-81
2023/03/19 14:20:50;;;;;;;;;1.00;1.00;;;;;;;;5062268;28;64673;-81
2023/03/19 14:23:23;;;;;;;;;1.00;1.00;;;;;;;;5081811;27;61793;-82
2023/03/19 14:25:57;;;;;;;;;0.25;0.25;;;;;;;;5082115;27;61780;-81
2023/03/19 14:28:29;;;;;;;;;0.50;0.00;;;;;;;;5063958;28;61881;-82
2023/03/19 14:30:55;;;;;;;;;0.00;0.00;;;;;;;;5081454;28;62846;-81
2023/03/19 14:33:24;;;;;;;;;0.00;0.00;;;;;;;;5082166;27;61914;-81
2023/03/19 14:35:50;;;;;;;;;2.00;1.00;;;;;;;;5080886;28;61957;-82
2023/03/19 14:38:35;;;;;;;;;0.75;0.75;;;;;;;;5082073;27;61807;-81
2023/03/19 14:41:02;;;;;;;;;1.00;0.00;;;;;;;;5080648;27;62990;-82
2023/03/19 14:43:47;;;;;;;;;0.75;0.75;;;;;;;;5062453;28;61897;-81
2023/03/19 14:46:22;;;;;;;;;1.00;1.00;;;;;;;;5073026;27;62112;-81
2023/03/19 14:49:02;;;;;;;;;1.00;1.00;;;;;;;;5055243;28;61851;-81